sensor_id;sensor_type;location;lat;lon;timestamp;temperature;humidity
3208;DHT22;1616;52.394;9.756;2022-08-19T00:01:31;22.50;8.10
3208;DHT22;1616;52.394;9.756;2022-08-19T00:03:59;22.40;8.10
3208;DHT22;1616;52.394;9.756;2022-08-19T00:06:27;22.40;8.00
3208;DHT22;1616;52.394;9.756;2022-08-19T00:08:53;22.40;7.70
3208;DHT22;1616;52.394;9.756;2022-08-19T00:11:20;22.40;7.80
3208;DHT22;1616;52.394;9.756;2022-08-19T00:13:47;22.30;7.60
3208;DHT22;1616;52.394;9.756;2022-08-19T00:16:14;22.50;7.60
3208;DHT22;1616;52.394;9.756;2022-08-19T00:18:40;22.50;7.50
3208;DHT22;1616;52.394;9.756;2022-08-19T00:21:06;22.50;7.10
3208;DHT22;1616;52.394;9.756;2022-08-19T00:23:33;22.50;7.00
3208;DHT22;1616;52.394;9.756;2022-08-19T00:26:00;22.40;6.70
3208;DHT22;1616;52.394;9.756;2022-08-19T00:28:25;22.40;6.70
3208;DHT22;1616;52.394;9.756;2022-08-19T00:30:51;22.40;6.70
3208;DHT22;1616;52.394;9.756;2022-08-19T00:33:19;22.50;6.60
3208;DHT22;1616;52.394;9.756;2022-08-19T00:35:45;22.30;6.30
3208;DHT22;1616;52.394;9.756;2022-08-19T00:38:10;22.40;6.00
3208;DHT22;1616;52.394;9.756;2022-08-19T00:40:36;22.40;5.60
3208;DHT22;1616;52.394;9.756;2022-08-19T00:43:08;22.30;5.10
3208;DHT22;1616;52.394;9.756;2022-08-19T00:45:34;22.20;5.50
3208;DHT22;1616;52.394;9.756;2022-08-19T00:48:02;22.20;5.80
3208;DHT22;1616;52.394;9.756;2022-08-19T00:50:32;22.10;5.50
3208;DHT22;1616;52.394;9.756;2022-08-19T00:52:59;22.10;5.50
3208;DHT22;1616;52.394;9.756;2022-08-19T00:55:26;22.00;5.20
3208;DHT22;1616;52.394;9.756;2022-08-19T00:58:06;22.00;5.20
3208;DHT22;1616;52.394;9.756;2022-08-19T01:00:33;21.90;5.30
3208;DHT22;1616;52.394;9.756;2022-08-19T01:03:04;22.00;5.30
3208;DHT22;1616;52.394;9.756;2022-08-19T01:05:30;21.90;5.10
3208;DHT22;1616;52.394;9.756;2022-08-19T01:07:58;21.90;5.20
3208;DHT22;1616;52.394;9.756;2022-08-19T01:10:26;21.90;5.10
3208;DHT22;1616;52.394;9.756;2022-08-19T01:12:55;21.90;5.10
3208;DHT22;1616;52.394;9.756;2022-08-19T01:15:25;21.90;4.80
3208;DHT22;1616;52.394;9.756;2022-08-19T01:17:53;21.80;4.40
3208;DHT22;1616;52.394;9.756;2022-08-19T01:20:21;21.80;4.70
3208;DHT22;1616;52.394;9.756;2022-08-19T01:22:53;21.70;5.00
3208;DHT22;1616;52.394;9.756;2022-08-19T01:25:22;21.60;4.30
3208;DHT22;1616;52.394;9.756;2022-08-19T01:27:50;21.60;4.60
3208;DHT22;1616;52.394;9.756;2022-08-19T01:30:22;21.60;4.80
3208;DHT22;1616;52.394;9.756;2022-08-19T01:32:49;21.70;5.00
3208;DHT22;1616;52.394;9.756;2022-08-19T01:35:15;21.60;4.80
3208;DHT22;1616;52.394;9.756;2022-08-19T01:38:05;21.70;4.90
3208;DHT22;1616;52.394;9.756;2022-08-19T01:40:35;21.90;4.40
3208;DHT22;1616;52.394;9.756;2022-08-19T01:43:01;21.70;4.50
3208;DHT22;1616;52.394;9.756;2022-08-19T01:45:30;21.60;4.20
3208;DHT22;1616;52.394;9.756;2022-08-19T01:47:57;21.80;4.40
3208;DHT22;1616;52.394;9.756;2022-08-19T01:50:23;21.70;4.30
3208;DHT22;1616;52.394;9.756;2022-08-19T01:52:49;21.90;4.10
3208;DHT22;1616;52.394;9.756;2022-08-19T01:55:19;21.80;3.70
3208;DHT22;1616;52.394;9.756;2022-08-19T01:57:50;21.90;3.80
3208;DHT22;1616;52.394;9.756;2022-08-19T02:00:20;21.80;3.70
3208;DHT22;1616;52.394;9.756;2022-08-19T02:02:46;21.80;3.70
3208;DHT22;1616;52.394;9.756;2022-08-19T02:05:13;21.90;3.80
3208;DHT22;1616;52.394;9.756;2022-08-19T02:07:40;21.70;3.60
3208;DHT22;1616;52.394;9.756;2022-08-19T02:10:10;21.90;3.40
3208;DHT22;1616;52.394;9.756;2022-08-19T02:12:36;21.80;3.20
3208;DHT22;1616;52.394;9.756;2022-08-19T02:15:02;21.80;3.10
3208;DHT22;1616;52.394;9.756;2022-08-19T02:17:29;21.70;3.40
3208;DHT22;1616;52.394;9.756;2022-08-19T02:19:55;21.70;3.60
3208;DHT22;1616;52.394;9.756;2022-08-19T02:22:22;21.70;3.40
3208;DHT22;1616;52.394;9.756;2022-08-19T02:24:48;21.70;3.60
3208;DHT22;1616;52.394;9.756;2022-08-19T02:27:14;21.60;3.40
3208;DHT22;1616;52.394;9.756;2022-08-19T02:29:40;21.70;3.30
3208;DHT22;1616;52.394;9.756;2022-08-19T02:32:06;21.70;3.20
3208;DHT22;1616;52.394;9.756;2022-08-19T02:34:32;21.80;3.20
3208;DHT22;1616;52.394;9.756;2022-08-19T02:36:58;21.70;3.10
3208;DHT22;1616;52.394;9.756;2022-08-19T02:39:24;21.60;2.90
3208;DHT22;1616;52.394;9.756;2022-08-19T02:41:50;21.70;2.90
3208;DHT22;1616;52.394;9.756;2022-08-19T02:44:17;21.60;2.80
3208;DHT22;1616;52.394;9.756;2022-08-19T02:46:45;21.80;3.00
3208;DHT22;1616;52.394;9.756;2022-08-19T02:49:13;21.60;2.70
3208;DHT22;1616;52.394;9.756;2022-08-19T02:51:43;21.60;2.80
3208;DHT22;1616;52.394;9.756;2022-08-19T02:54:11;21.50;2.80
3208;DHT22;1616;52.394;9.756;2022-08-19T02:56:39;21.60;2.40
3208;DHT22;1616;52.394;9.756;2022-08-19T02:59:06;21.60;2.10
3208;DHT22;1616;52.394;9.756;2022-08-19T03:01:38;21.60;2.60
3208;DHT22;1616;52.394;9.756;2022-08-19T03:04:08;21.60;2.60
3208;DHT22;1616;52.394;9.756;2022-08-19T03:06:36;21.50;2.60
3208;DHT22;1616;52.394;9.756;2022-08-19T03:09:02;21.70;2.20
3208;DHT22;1616;52.394;9.756;2022-08-19T03:11:31;21.70;2.60
3208;DHT22;1616;52.394;9.756;2022-08-19T03:13:57;21.70;2.40
3208;DHT22;1616;52.394;9.756;2022-08-19T03:16:25;21.70;2.30
3208;DHT22;1616;52.394;9.756;2022-08-19T03:18:53;21.70;2.30
3208;DHT22;1616;52.394;9.756;2022-08-19T03:21:22;21.60;2.20
3208;DHT22;1616;52.394;9.756;2022-08-19T03:23:49;21.60;2.20
3208;DHT22;1616;52.394;9.756;2022-08-19T03:26:15;21.70;2.30
3208;DHT22;1616;52.394;9.756;2022-08-19T03:28:43;21.50;2.30
3208;DHT22;1616;52.394;9.756;2022-08-19T03:31:13;21.60;2.00
3208;DHT22;1616;52.394;9.756;2022-08-19T03:33:39;21.60;2.50
3208;DHT22;1616;52.394;9.756;2022-08-19T03:36:18;21.60;2.40
3208;DHT22;1616;52.394;9.756;2022-08-19T03:38:46;21.60;2.20
3208;DHT22;1616;52.394;9.756;2022-08-19T03:41:16;21.50;2.00
3208;DHT22;1616;52.394;9.756;2022-08-19T03:43:43;21.50;1.90
3208;DHT22;1616;52.394;9.756;2022-08-19T03:46:17;21.50;2.00
3208;DHT22;1616;52.394;9.756;2022-08-19T03:48:46;21.30;1.90
3208;DHT22;1616;52.394;9.756;2022-08-19T03:51:18;21.50;2.10
3208;DHT22;1616;52.394;9.756;2022-08-19T03:53:46;21.50;2.20
3208;DHT22;1616;52.394;9.756;2022-08-19T03:56:12;21.40;2.10
3208;DHT22;1616;52.394;9.756;2022-08-19T03:58:38;21.40;1.80
3208;DHT22;1616;52.394;9.756;2022-08-19T04:01:26;21.40;2.00
3208;DHT22;1616;52.394;9.756;2022-08-19T04:03:53;21.50;2.20
3208;DHT22;1616;52.394;9.756;2022-08-19T04:06:22;21.20;1.90
3208;DHT22;1616;52.394;9.756;2022-08-19T04:08:50;21.30;1.60
3208;DHT22;1616;52.394;9.756;2022-08-19T04:11:19;21.30;2.00
3208;DHT22;1616;52.394;9.756;2022-08-19T04:13:50;21.30;2.10
3208;DHT22;1616;52.394;9.756;2022-08-19T04:16:18;21.30;1.80
3208;DHT22;1616;52.394;9.756;2022-08-19T04:18:44;21.30;2.30
3208;DHT22;1616;52.394;9.756;2022-08-19T04:21:20;21.30;2.30
3208;DHT22;1616;52.394;9.756;2022-08-19T04:23:46;21.30;2.20
3208;DHT22;1616;52.394;9.756;2022-08-19T04:26:23;21.20;2.10
3208;DHT22;1616;52.394;9.756;2022-08-19T04:28:49;21.30;2.70
3208;DHT22;1616;52.394;9.756;2022-08-19T04:31:22;21.30;1.70
3208;DHT22;1616;52.394;9.756;2022-08-19T04:33:48;21.40;2.20
3208;DHT22;1616;52.394;9.756;2022-08-19T04:36:34;21.30;2.00
3208;DHT22;1616;52.394;9.756;2022-08-19T04:39:08;21.20;1.80
3208;DHT22;1616;52.394;9.756;2022-08-19T04:41:34;21.20;1.80
3208;DHT22;1616;52.394;9.756;2022-08-19T04:44:19;21.20;1.90
3208;DHT22;1616;52.394;9.756;2022-08-19T04:46:49;21.20;2.00
3208;DHT22;1616;52.394;9.756;2022-08-19T04:49:17;21.20;2.20
3208;DHT22;1616;52.394;9.756;2022-08-19T04:51:45;21.20;1.50
3208;DHT22;1616;52.394;9.756;2022-08-19T04:54:12;21.30;2.00
3208;DHT22;1616;52.394;9.756;2022-08-19T04:56:39;21.20;1.40
3208;DHT22;1616;52.394;9.756;2022-08-19T04:59:05;21.20;1.80
3208;DHT22;1616;52.394;9.756;2022-08-19T05:01:32;21.20;1.80
3208;DHT22;1616;52.394;9.756;2022-08-19T05:04:00;21.20;1.60
3208;DHT22;1616;52.394;9.756;2022-08-19T05:06:31;21.30;1.70
3208;DHT22;1616;52.394;9.756;2022-08-19T05:09:00;21.30;1.80
3208;DHT22;1616;52.394;9.756;2022-08-19T05:11:29;21.50;1.80
3208;DHT22;1616;52.394;9.756;2022-08-19T05:13:56;21.60;1.50
3208;DHT22;1616;52.394;9.756;2022-08-19T05:16:23;21.50;1.20
3208;DHT22;1616;52.394;9.756;2022-08-19T05:18:50;21.60;1.00
3208;DHT22;1616;52.394;9.756;2022-08-19T05:21:35;21.70;1.00
3208;DHT22;1616;52.394;9.756;2022-08-19T05:24:20;21.70;1.00
3208;DHT22;1616;52.394;9.756;2022-08-19T05:26:48;21.90;1.00
3208;DHT22;1616;52.394;9.756;2022-08-19T05:29:18;22.00;1.00
3208;DHT22;1616;52.394;9.756;2022-08-19T05:31:44;22.10;1.00
3208;DHT22;1616;52.394;9.756;2022-08-19T05:34:11;22.20;1.00
3208;DHT22;1616;52.394;9.756;2022-08-19T05:36:40;22.20;1.00
3208;DHT22;1616;52.394;9.756;2022-08-19T05:39:12;22.20;1.00
3208;DHT22;1616;52.394;9.756;2022-08-19T05:41:46;22.40;1.00
3208;DHT22;1616;52.394;9.756;2022-08-19T05:44:12;22.30;1.00
3208;DHT22;1616;52.394;9.756;2022-08-19T05:46:39;22.30;1.00
3208;DHT22;1616;52.394;9.756;2022-08-19T05:49:05;22.40;1.00
3208;DHT22;1616;52.394;9.756;2022-08-19T05:51:34;22.40;1.00
3208;DHT22;1616;52.394;9.756;2022-08-19T05:54:01;22.40;1.00
3208;DHT22;1616;52.394;9.756;2022-08-19T05:56:27;22.60;1.00
3208;DHT22;1616;52.394;9.756;2022-08-19T05:58:52;22.70;1.00
3208;DHT22;1616;52.394;9.756;2022-08-19T06:01:20;22.80;1.00
3208;DHT22;1616;52.394;9.756;2022-08-19T06:03:46;22.90;1.00
3208;DHT22;1616;52.394;9.756;2022-08-19T06:06:15;22.90;1.00
3208;DHT22;1616;52.394;9.756;2022-08-19T06:08:41;22.90;1.00
3208;DHT22;1616;52.394;9.756;2022-08-19T06:11:15;22.90;1.00
3208;DHT22;1616;52.394;9.756;2022-08-19T06:13:43;22.90;1.00
3208;DHT22;1616;52.394;9.756;2022-08-19T06:16:09;22.90;1.00
3208;DHT22;1616;52.394;9.756;2022-08-19T06:18:34;22.80;1.00
3208;DHT22;1616;52.394;9.756;2022-08-19T06:21:00;22.80;1.00
3208;DHT22;1616;52.394;9.756;2022-08-19T06:23:29;22.80;1.00
3208;DHT22;1616;52.394;9.756;2022-08-19T06:25:54;22.70;1.00
3208;DHT22;1616;52.394;9.756;2022-08-19T06:28:20;22.60;1.00
3208;DHT22;1616;52.394;9.756;2022-08-19T06:30:46;22.60;1.00
3208;DHT22;1616;52.394;9.756;2022-08-19T06:33:12;22.60;1.00
3208;DHT22;1616;52.394;9.756;2022-08-19T06:35:41;22.60;1.00
3208;DHT22;1616;52.394;9.756;2022-08-19T06:38:07;22.60;1.00
3208;DHT22;1616;52.394;9.756;2022-08-19T06:40:33;22.60;1.00
3208;DHT22;1616;52.394;9.756;2022-08-19T06:42:59;22.70;1.00
3208;DHT22;1616;52.394;9.756;2022-08-19T06:45:27;22.60;1.00
3208;DHT22;1616;52.394;9.756;2022-08-19T06:47:53;22.70;1.00
3208;DHT22;1616;52.394;9.756;2022-08-19T06:50:23;22.80;1.00
3208;DHT22;1616;52.394;9.756;2022-08-19T06:52:48;22.70;1.00
3208;DHT22;1616;52.394;9.756;2022-08-19T06:55:14;20.10;1.00
3208;DHT22;1616;52.394;9.756;2022-08-19T06:57:41;22.70;1.00
3208;DHT22;1616;52.394;9.756;2022-08-19T07:00:09;22.60;1.00
3208;DHT22;1616;52.394;9.756;2022-08-19T07:02:42;22.60;1.00
3208;DHT22;1616;52.394;9.756;2022-08-19T07:05:08;22.30;1.00
3208;DHT22;1616;52.394;9.756;2022-08-19T07:07:34;22.70;1.00
3208;DHT22;1616;52.394;9.756;2022-08-19T07:10:00;22.60;1.00
3208;DHT22;1616;52.394;9.756;2022-08-19T07:12:28;22.70;1.00
3208;DHT22;1616;52.394;9.756;2022-08-19T07:14:55;22.80;1.00
3208;DHT22;1616;52.394;9.756;2022-08-19T07:17:22;22.90;1.00
3208;DHT22;1616;52.394;9.756;2022-08-19T07:19:47;23.10;1.00
3208;DHT22;1616;52.394;9.756;2022-08-19T07:22:13;23.20;1.00
3208;DHT22;1616;52.394;9.756;2022-08-19T07:24:40;23.10;1.00
3208;DHT22;1616;52.394;9.756;2022-08-19T07:27:06;23.40;1.00
3208;DHT22;1616;52.394;9.756;2022-08-19T07:29:34;23.50;1.00
3208;DHT22;1616;52.394;9.756;2022-08-19T07:32:01;23.70;1.00
3208;DHT22;1616;52.394;9.756;2022-08-19T07:34:29;23.80;1.00
3208;DHT22;1616;52.394;9.756;2022-08-19T07:36:56;23.90;1.00
3208;DHT22;1616;52.394;9.756;2022-08-19T07:39:30;24.00;1.00
3208;DHT22;1616;52.394;9.756;2022-08-19T07:41:59;24.20;1.00
3208;DHT22;1616;52.394;9.756;2022-08-19T07:44:26;24.30;1.00
3208;DHT22;1616;52.394;9.756;2022-08-19T07:46:54;24.40;1.00
3208;DHT22;1616;52.394;9.756;2022-08-19T07:49:22;24.40;1.00
3208;DHT22;1616;52.394;9.756;2022-08-19T07:51:57;24.30;1.00
3208;DHT22;1616;52.394;9.756;2022-08-19T07:54:25;24.30;1.00
3208;DHT22;1616;52.394;9.756;2022-08-19T07:56:52;24.40;1.00
3208;DHT22;1616;52.394;9.756;2022-08-19T07:59:19;24.30;1.00
3208;DHT22;1616;52.394;9.756;2022-08-19T08:01:47;24.50;1.00
3208;DHT22;1616;52.394;9.756;2022-08-19T08:04:13;24.60;1.00
3208;DHT22;1616;52.394;9.756;2022-08-19T08:06:57;24.70;1.00
3208;DHT22;1616;52.394;9.756;2022-08-19T08:09:43;24.90;1.00
3208;DHT22;1616;52.394;9.756;2022-08-19T08:12:15;25.20;1.00
3208;DHT22;1616;52.394;9.756;2022-08-19T08:14:45;25.40;1.00
3208;DHT22;1616;52.394;9.756;2022-08-19T08:17:12;25.60;1.00
3208;DHT22;1616;52.394;9.756;2022-08-19T08:19:38;25.70;1.00
3208;DHT22;1616;52.394;9.756;2022-08-19T08:22:07;26.00;1.00
3208;DHT22;1616;52.394;9.756;2022-08-19T08:24:33;25.90;1.00
3208;DHT22;1616;52.394;9.756;2022-08-19T08:27:01;26.00;1.00
3208;DHT22;1616;52.394;9.756;2022-08-19T08:29:28;26.20;1.00
3208;DHT22;1616;52.394;9.756;2022-08-19T08:31:55;26.40;1.00
3208;DHT22;1616;52.394;9.756;2022-08-19T08:34:21;26.60;1.00
3208;DHT22;1616;52.394;9.756;2022-08-19T08:36:47;26.80;1.00
3208;DHT22;1616;52.394;9.756;2022-08-19T08:39:16;26.90;1.00
3208;DHT22;1616;52.394;9.756;2022-08-19T08:42:01;27.20;1.00
3208;DHT22;1616;52.394;9.756;2022-08-19T08:44:53;27.70;1.00
3208;DHT22;1616;52.394;9.756;2022-08-19T08:47:25;27.70;1.00
3208;DHT22;1616;52.394;9.756;2022-08-19T08:49:59;27.80;1.00
3208;DHT22;1616;52.394;9.756;2022-08-19T08:52:31;27.80;1.00
3208;DHT22;1616;52.394;9.756;2022-08-19T08:55:05;27.80;1.00
3208;DHT22;1616;52.394;9.756;2022-08-19T08:57:43;27.80;1.00
3208;DHT22;1616;52.394;9.756;2022-08-19T09:00:31;25.50;1.00
3208;DHT22;1616;52.394;9.756;2022-08-19T09:03:00;28.40;1.00
3208;DHT22;1616;52.394;9.756;2022-08-19T09:08:27;28.90;1.00
3208;DHT22;1616;52.394;9.756;2022-08-19T09:10:56;29.20;1.00
3208;DHT22;1616;52.394;9.756;2022-08-19T09:13:44;29.40;1.00
3208;DHT22;1616;52.394;9.756;2022-08-19T09:16:17;29.60;1.00
3208;DHT22;1616;52.394;9.756;2022-08-19T09:18:49;29.70;1.00
3208;DHT22;1616;52.394;9.756;2022-08-19T09:21:18;29.70;1.00
3208;DHT22;1616;52.394;9.756;2022-08-19T09:23:44;29.70;1.00
3208;DHT22;1616;52.394;9.756;2022-08-19T09:26:12;29.70;1.00
3208;DHT22;1616;52.394;9.756;2022-08-19T09:28:40;29.80;1.00
3208;DHT22;1616;52.394;9.756;2022-08-19T09:31:21;30.00;1.00
3208;DHT22;1616;52.394;9.756;2022-08-19T09:33:47;30.20;1.00
3208;DHT22;1616;52.394;9.756;2022-08-19T09:36:16;30.30;1.00
3208;DHT22;1616;52.394;9.756;2022-08-19T09:38:43;30.40;1.00
3208;DHT22;1616;52.394;9.756;2022-08-19T09:41:16;30.50;1.00
3208;DHT22;1616;52.394;9.756;2022-08-19T09:43:44;30.80;1.00
3208;DHT22;1616;52.394;9.756;2022-08-19T09:46:11;31.60;1.00
3208;DHT22;1616;52.394;9.756;2022-08-19T09:48:41;32.50;1.00
3208;DHT22;1616;52.394;9.756;2022-08-19T09:51:16;33.50;1.00
3208;DHT22;1616;52.394;9.756;2022-08-19T09:53:44;34.30;1.00
3208;DHT22;1616;52.394;9.756;2022-08-19T09:56:10;34.80;1.00
3208;DHT22;1616;52.394;9.756;2022-08-19T09:58:36;35.20;1.00
3208;DHT22;1616;52.394;9.756;2022-08-19T10:01:03;35.40;1.00
3208;DHT22;1616;52.394;9.756;2022-08-19T10:03:31;35.40;1.00
3208;DHT22;1616;52.394;9.756;2022-08-19T10:05:59;35.20;1.00
3208;DHT22;1616;52.394;9.756;2022-08-19T10:08:28;35.00;1.00
3208;DHT22;1616;52.394;9.756;2022-08-19T10:10:55;34.80;1.00
3208;DHT22;1616;52.394;9.756;2022-08-19T10:13:24;34.70;1.00
3208;DHT22;1616;52.394;9.756;2022-08-19T10:15:52;35.00;1.00
3208;DHT22;1616;52.394;9.756;2022-08-19T10:18:20;35.10;1.00
3208;DHT22;1616;52.394;9.756;2022-08-19T10:20:50;35.10;1.00
3208;DHT22;1616;52.394;9.756;2022-08-19T10:23:19;34.90;1.00
3208;DHT22;1616;52.394;9.756;2022-08-19T10:25:45;34.90;1.00
3208;DHT22;1616;52.394;9.756;2022-08-19T10:28:11;34.80;1.00
3208;DHT22;1616;52.394;9.756;2022-08-19T10:30:40;34.50;1.00
3208;DHT22;1616;52.394;9.756;2022-08-19T10:33:06;34.30;1.00
3208;DHT22;1616;52.394;9.756;2022-08-19T10:35:32;34.10;1.00
3208;DHT22;1616;52.394;9.756;2022-08-19T10:37:58;33.90;1.00
3208;DHT22;1616;52.394;9.756;2022-08-19T10:40:26;33.80;1.00
3208;DHT22;1616;52.394;9.756;2022-08-19T10:42:54;34.00;1.00
3208;DHT22;1616;52.394;9.756;2022-08-19T10:45:22;34.40;1.00
3208;DHT22;1616;52.394;9.756;2022-08-19T10:47:50;34.80;1.00
3208;DHT22;1616;52.394;9.756;2022-08-19T10:50:16;35.20;1.00
3208;DHT22;1616;52.394;9.756;2022-08-19T10:53:04;35.20;1.00
3208;DHT22;1616;52.394;9.756;2022-08-19T10:55:31;35.10;1.00
3208;DHT22;1616;52.394;9.756;2022-08-19T10:58:18;34.90;1.00
3208;DHT22;1616;52.394;9.756;2022-08-19T11:00:58;34.60;1.00
3208;DHT22;1616;52.394;9.756;2022-08-19T11:03:25;34.30;1.00
3208;DHT22;1616;52.394;9.756;2022-08-19T11:06:07;34.10;1.00
3208;DHT22;1616;52.394;9.756;2022-08-19T11:08:34;33.90;1.00
3208;DHT22;1616;52.394;9.756;2022-08-19T11:11:01;33.90;1.00
3208;DHT22;1616;52.394;9.756;2022-08-19T11:13:33;34.10;1.00
3208;DHT22;1616;52.394;9.756;2022-08-19T11:16:15;34.50;1.00
3208;DHT22;1616;52.394;9.756;2022-08-19T11:18:46;35.10;1.00
3208;DHT22;1616;52.394;9.756;2022-08-19T11:21:20;35.70;1.00
3208;DHT22;1616;52.394;9.756;2022-08-19T11:23:49;36.50;1.00
3208;DHT22;1616;52.394;9.756;2022-08-19T11:26:16;37.00;1.00
3208;DHT22;1616;52.394;9.756;2022-08-19T11:28:42;37.40;1.00
3208;DHT22;1616;52.394;9.756;2022-08-19T11:31:19;37.80;1.00
3208;DHT22;1616;52.394;9.756;2022-08-19T11:33:45;38.20;1.00
3208;DHT22;1616;52.394;9.756;2022-08-19T11:36:12;38.50;1.00
3208;DHT22;1616;52.394;9.756;2022-08-19T11:38:38;38.60;1.00
3208;DHT22;1616;52.394;9.756;2022-08-19T11:41:07;38.90;1.00
3208;DHT22;1616;52.394;9.756;2022-08-19T11:43:33;39.10;1.00
3208;DHT22;1616;52.394;9.756;2022-08-19T11:46:03;39.30;1.00
3208;DHT22;1616;52.394;9.756;2022-08-19T11:48:29;39.20;1.00
3208;DHT22;1616;52.394;9.756;2022-08-19T11:50:54;39.10;1.00
3208;DHT22;1616;52.394;9.756;2022-08-19T11:53:23;39.10;1.00
3208;DHT22;1616;52.394;9.756;2022-08-19T11:55:50;38.70;1.00
3208;DHT22;1616;52.394;9.756;2022-08-19T11:58:16;38.50;1.00
3208;DHT22;1616;52.394;9.756;2022-08-19T12:00:43;38.50;1.00
3208;DHT22;1616;52.394;9.756;2022-08-19T12:03:11;38.30;1.00
3208;DHT22;1616;52.394;9.756;2022-08-19T12:05:38;38.40;1.00
3208;DHT22;1616;52.394;9.756;2022-08-19T12:08:05;38.20;1.00
3208;DHT22;1616;52.394;9.756;2022-08-19T12:10:33;38.10;1.00
3208;DHT22;1616;52.394;9.756;2022-08-19T12:12:59;38.00;1.00
3208;DHT22;1616;52.394;9.756;2022-08-19T12:15:26;37.90;1.00
3208;DHT22;1616;52.394;9.756;2022-08-19T12:17:53;38.00;1.00
3208;DHT22;1616;52.394;9.756;2022-08-19T12:20:22;38.00;1.00
3208;DHT22;1616;52.394;9.756;2022-08-19T12:22:48;37.80;1.00
3208;DHT22;1616;52.394;9.756;2022-08-19T12:25:14;37.50;1.00
3208;DHT22;1616;52.394;9.756;2022-08-19T12:27:40;37.30;1.00
3208;DHT22;1616;52.394;9.756;2022-08-19T12:30:08;36.80;1.00
3208;DHT22;1616;52.394;9.756;2022-08-19T12:32:35;36.70;1.00
3208;DHT22;1616;52.394;9.756;2022-08-19T12:35:01;36.70;1.00
3208;DHT22;1616;52.394;9.756;2022-08-19T12:37:26;36.70;1.00
3208;DHT22;1616;52.394;9.756;2022-08-19T12:39:52;36.70;1.00
3208;DHT22;1616;52.394;9.756;2022-08-19T12:42:18;36.80;1.00
3208;DHT22;1616;52.394;9.756;2022-08-19T12:44:44;36.80;1.00
3208;DHT22;1616;52.394;9.756;2022-08-19T12:47:12;37.10;1.00
3208;DHT22;1616;52.394;9.756;2022-08-19T12:49:40;37.10;1.00
3208;DHT22;1616;52.394;9.756;2022-08-19T12:52:07;36.90;1.00
3208;DHT22;1616;52.394;9.756;2022-08-19T12:54:34;36.70;1.00
3208;DHT22;1616;52.394;9.756;2022-08-19T12:57:04;31.70;1.00
3208;DHT22;1616;52.394;9.756;2022-08-19T12:59:30;36.50;1.00
3208;DHT22;1616;52.394;9.756;2022-08-19T13:01:56;36.20;1.00
3208;DHT22;1616;52.394;9.756;2022-08-19T13:04:22;35.90;1.00
3208;DHT22;1616;52.394;9.756;2022-08-19T13:06:48;35.80;1.00
3208;DHT22;1616;52.394;9.756;2022-08-19T13:09:14;35.70;1.00
3208;DHT22;1616;52.394;9.756;2022-08-19T13:11:39;35.30;1.00
3208;DHT22;1616;52.394;9.756;2022-08-19T13:14:05;35.00;1.00
3208;DHT22;1616;52.394;9.756;2022-08-19T13:16:31;34.70;1.00
3208;DHT22;1616;52.394;9.756;2022-08-19T13:18:57;34.40;1.00
3208;DHT22;1616;52.394;9.756;2022-08-19T13:21:25;34.20;1.00
3208;DHT22;1616;52.394;9.756;2022-08-19T13:23:52;33.90;1.00
3208;DHT22;1616;52.394;9.756;2022-08-19T13:26:18;33.70;1.00
3208;DHT22;1616;52.394;9.756;2022-08-19T13:28:45;33.50;1.00
3208;DHT22;1616;52.394;9.756;2022-08-19T13:31:32;33.30;1.00
3208;DHT22;1616;52.394;9.756;2022-08-19T13:34:18;33.10;1.00
3208;DHT22;1616;52.394;9.756;2022-08-19T13:36:44;32.90;1.00
3208;DHT22;1616;52.394;9.756;2022-08-19T13:39:11;32.70;1.00
3208;DHT22;1616;52.394;9.756;2022-08-19T13:41:41;32.40;1.00
3208;DHT22;1616;52.394;9.756;2022-08-19T13:44:08;32.40;1.00
3208;DHT22;1616;52.394;9.756;2022-08-19T13:46:33;32.20;1.00
3208;DHT22;1616;52.394;9.756;2022-08-19T13:48:59;32.00;1.00
3208;DHT22;1616;52.394;9.756;2022-08-19T13:51:25;31.90;1.00
3208;DHT22;1616;52.394;9.756;2022-08-19T13:53:51;31.70;1.00
3208;DHT22;1616;52.394;9.756;2022-08-19T13:56:19;31.60;1.00
3208;DHT22;1616;52.394;9.756;2022-08-19T13:58:45;31.50;1.00
3208;DHT22;1616;52.394;9.756;2022-08-19T14:01:11;31.20;1.00
3208;DHT22;1616;52.394;9.756;2022-08-19T14:03:38;31.20;1.00
3208;DHT22;1616;52.394;9.756;2022-08-19T14:06:03;31.00;1.00
3208;DHT22;1616;52.394;9.756;2022-08-19T14:08:29;30.60;1.00
3208;DHT22;1616;52.394;9.756;2022-08-19T14:10:58;30.60;1.00
3208;DHT22;1616;52.394;9.756;2022-08-19T14:13:24;30.50;1.00
3208;DHT22;1616;52.394;9.756;2022-08-19T14:15:51;30.40;1.00
3208;DHT22;1616;52.394;9.756;2022-08-19T14:18:18;30.20;1.00
3208;DHT22;1616;52.394;9.756;2022-08-19T14:20:45;30.10;1.00
3208;DHT22;1616;52.394;9.756;2022-08-19T14:23:11;30.10;1.00
3208;DHT22;1616;52.394;9.756;2022-08-19T14:25:38;30.00;1.00
3208;DHT22;1616;52.394;9.756;2022-08-19T14:28:04;30.00;1.00
3208;DHT22;1616;52.394;9.756;2022-08-19T14:30:32;29.90;1.00
3208;DHT22;1616;52.394;9.756;2022-08-19T14:32:59;29.80;1.00
3208;DHT22;1616;52.394;9.756;2022-08-19T14:35:28;29.80;1.00
3208;DHT22;1616;52.394;9.756;2022-08-19T14:37:55;29.70;1.00
3208;DHT22;1616;52.394;9.756;2022-08-19T14:40:23;29.70;1.00
3208;DHT22;1616;52.394;9.756;2022-08-19T14:42:56;29.70;1.00
3208;DHT22;1616;52.394;9.756;2022-08-19T14:45:25;29.60;1.00
3208;DHT22;1616;52.394;9.756;2022-08-19T14:47:52;29.50;1.00
3208;DHT22;1616;52.394;9.756;2022-08-19T14:50:18;29.40;1.00
3208;DHT22;1616;52.394;9.756;2022-08-19T14:52:46;29.50;1.00
3208;DHT22;1616;52.394;9.756;2022-08-19T14:55:16;29.50;1.00
3208;DHT22;1616;52.394;9.756;2022-08-19T14:57:43;29.50;1.00
3208;DHT22;1616;52.394;9.756;2022-08-19T15:00:09;29.40;1.00
3208;DHT22;1616;52.394;9.756;2022-08-19T15:02:39;29.40;1.00
3208;DHT22;1616;52.394;9.756;2022-08-19T15:05:06;29.40;1.00
3208;DHT22;1616;52.394;9.756;2022-08-19T15:07:32;29.30;1.00
3208;DHT22;1616;52.394;9.756;2022-08-19T15:09:57;29.30;1.00
3208;DHT22;1616;52.394;9.756;2022-08-19T15:12:23;29.30;1.00
3208;DHT22;1616;52.394;9.756;2022-08-19T15:14:49;29.30;1.00
3208;DHT22;1616;52.394;9.756;2022-08-19T15:17:18;29.20;1.00
3208;DHT22;1616;52.394;9.756;2022-08-19T15:19:45;29.30;1.00
3208;DHT22;1616;52.394;9.756;2022-08-19T15:22:11;29.30;1.00
3208;DHT22;1616;52.394;9.756;2022-08-19T15:24:37;29.10;1.00
3208;DHT22;1616;52.394;9.756;2022-08-19T15:27:04;29.30;1.00
3208;DHT22;1616;52.394;9.756;2022-08-19T15:29:31;29.30;1.00
3208;DHT22;1616;52.394;9.756;2022-08-19T15:31:58;29.20;1.00
3208;DHT22;1616;52.394;9.756;2022-08-19T15:34:24;29.30;1.00
3208;DHT22;1616;52.394;9.756;2022-08-19T15:36:52;29.10;1.00
3208;DHT22;1616;52.394;9.756;2022-08-19T15:39:18;29.10;1.00
3208;DHT22;1616;52.394;9.756;2022-08-19T15:41:45;29.10;1.00
3208;DHT22;1616;52.394;9.756;2022-08-19T15:44:16;29.10;1.00
3208;DHT22;1616;52.394;9.756;2022-08-19T15:46:44;29.10;1.00
3208;DHT22;1616;52.394;9.756;2022-08-19T15:49:12;29.10;1.00
3208;DHT22;1616;52.394;9.756;2022-08-19T15:51:40;29.10;1.00
3208;DHT22;1616;52.394;9.756;2022-08-19T15:54:11;29.10;1.00
3208;DHT22;1616;52.394;9.756;2022-08-19T15:56:37;29.10;1.00
3208;DHT22;1616;52.394;9.756;2022-08-19T15:59:22;29.00;1.00
3208;DHT22;1616;52.394;9.756;2022-08-19T16:02:07;28.90;1.00
3208;DHT22;1616;52.394;9.756;2022-08-19T16:04:52;28.90;1.00
3208;DHT22;1616;52.394;9.756;2022-08-19T16:07:36;29.00;1.00
3208;DHT22;1616;52.394;9.756;2022-08-19T16:10:04;28.90;1.00
3208;DHT22;1616;52.394;9.756;2022-08-19T16:12:30;28.90;1.00
3208;DHT22;1616;52.394;9.756;2022-08-19T16:14:56;28.90;1.00
3208;DHT22;1616;52.394;9.756;2022-08-19T16:17:22;28.90;1.00
3208;DHT22;1616;52.394;9.756;2022-08-19T16:19:48;28.90;1.00
3208;DHT22;1616;52.394;9.756;2022-08-19T16:22:14;28.80;1.00
3208;DHT22;1616;52.394;9.756;2022-08-19T16:24:40;28.80;1.00
3208;DHT22;1616;52.394;9.756;2022-08-19T16:27:06;28.80;1.00
3208;DHT22;1616;52.394;9.756;2022-08-19T16:29:31;28.90;1.00